Longwood, Florida
Current Conditions -  °F | °C
As of 6:53 AM on Sunday 25 Jan 2015 (Local Time) from KSFB Reporting Station
Clear Clear  
Wind Chill: 34°   Ceiling: Unl
Heat Index: 40°   Visibility: 10mi
Dew Point: 36°   Wind: 8mph
Humidity: 86%   Direction: 300°WNW
Pressure: 30.1"   Gusts: NA
Location:  28.7°N, 81.35°W
Report Text: KSFB 251153Z 30007KT 10SM CLR 04/02 A3010 RMK AO2 SLP192 70009 T00440022 10078 20039 53017
Loading
Personal Weather Stations






























Interactive Weather Map New forecast layout! Learn more

10-Day Weather Forecast

Advertisements
Track Severe Weather on mobile